sensor_id;sensor_type;location;lat;lon;timestamp;temperature;humidity
20777;DHT22;10548;47.504;8.248;2023-04-03T00:01:12;7.40;99.90
20777;DHT22;10548;47.504;8.248;2023-04-03T00:03:39;7.50;99.90
20777;DHT22;10548;47.504;8.248;2023-04-03T00:06:08;7.50;99.90
20777;DHT22;10548;47.504;8.248;2023-04-03T00:08:38;7.50;99.90
20777;DHT22;10548;47.504;8.248;2023-04-03T00:11:05;7.50;99.90
20777;DHT22;10548;47.504;8.248;2023-04-03T00:13:33;7.30;99.90
20777;DHT22;10548;47.504;8.248;2023-04-03T00:16:00;7.30;99.90
20777;DHT22;10548;47.504;8.248;2023-04-03T00:18:28;7.40;99.90
20777;DHT22;10548;47.504;8.248;2023-04-03T00:20:56;7.40;99.90
20777;DHT22;10548;47.504;8.248;2023-04-03T00:23:23;7.30;99.90
20777;DHT22;10548;47.504;8.248;2023-04-03T00:25:51;7.30;99.90
20777;DHT22;10548;47.504;8.248;2023-04-03T00:28:19;7.30;99.90
20777;DHT22;10548;47.504;8.248;2023-04-03T00:30:49;7.30;99.90
20777;DHT22;10548;47.504;8.248;2023-04-03T00:33:17;7.20;99.90
20777;DHT22;10548;47.504;8.248;2023-04-03T00:35:44;7.10;99.90
20777;DHT22;10548;47.504;8.248;2023-04-03T00:38:11;7.20;99.90
20777;DHT22;10548;47.504;8.248;2023-04-03T00:40:42;7.20;99.90
20777;DHT22;10548;47.504;8.248;2023-04-03T00:43:22;7.10;99.90
20777;DHT22;10548;47.504;8.248;2023-04-03T00:45:51;7.10;99.90
20777;DHT22;10548;47.504;8.248;2023-04-03T00:48:22;7.00;99.90
20777;DHT22;10548;47.504;8.248;2023-04-03T00:50:52;6.90;99.90
20777;DHT22;10548;47.504;8.248;2023-04-03T00:53:23;6.80;99.90
20777;DHT22;10548;47.504;8.248;2023-04-03T00:55:52;6.70;99.90
20777;DHT22;10548;47.504;8.248;2023-04-03T00:58:26;6.60;99.90
20777;DHT22;10548;47.504;8.248;2023-04-03T01:00:57;6.50;99.90
20777;DHT22;10548;47.504;8.248;2023-04-03T01:03:25;6.50;99.90
20777;DHT22;10548;47.504;8.248;2023-04-03T01:05:53;6.50;99.90
20777;DHT22;10548;47.504;8.248;2023-04-03T01:08:21;6.50;99.90
20777;DHT22;10548;47.504;8.248;2023-04-03T01:10:49;6.50;99.90
20777;DHT22;10548;47.504;8.248;2023-04-03T01:13:34;6.40;99.90
20777;DHT22;10548;47.504;8.248;2023-04-03T01:16:05;6.50;99.90
20777;DHT22;10548;47.504;8.248;2023-04-03T01:18:35;6.50;99.90
20777;DHT22;10548;47.504;8.248;2023-04-03T01:21:37;6.40;99.90
20777;DHT22;10548;47.504;8.248;2023-04-03T01:24:35;6.30;99.90
20777;DHT22;10548;47.504;8.248;2023-04-03T01:27:06;6.30;99.90
20777;DHT22;10548;47.504;8.248;2023-04-03T01:29:35;6.20;99.90
20777;DHT22;10548;47.504;8.248;2023-04-03T01:32:03;6.10;99.90
20777;DHT22;10548;47.504;8.248;2023-04-03T01:34:31;6.30;99.90
20777;DHT22;10548;47.504;8.248;2023-04-03T01:36:58;6.20;99.90
20777;DHT22;10548;47.504;8.248;2023-04-03T01:39:26;6.10;99.90
20777;DHT22;10548;47.504;8.248;2023-04-03T01:41:53;6.00;99.90
20777;DHT22;10548;47.504;8.248;2023-04-03T01:44:27;5.90;99.90
20777;DHT22;10548;47.504;8.248;2023-04-03T01:46:55;6.00;99.90
20777;DHT22;10548;47.504;8.248;2023-04-03T01:49:23;6.10;99.90
20777;DHT22;10548;47.504;8.248;2023-04-03T01:51:50;6.10;99.90
20777;DHT22;10548;47.504;8.248;2023-04-03T01:54:18;6.00;99.90
20777;DHT22;10548;47.504;8.248;2023-04-03T01:56:45;5.90;99.90
20777;DHT22;10548;47.504;8.248;2023-04-03T01:59:12;6.00;99.90
20777;DHT22;10548;47.504;8.248;2023-04-03T02:01:40;5.90;99.90
20777;DHT22;10548;47.504;8.248;2023-04-03T02:04:07;5.90;99.90
20777;DHT22;10548;47.504;8.248;2023-04-03T02:06:35;5.90;99.90
20777;DHT22;10548;47.504;8.248;2023-04-03T02:09:02;5.80;99.90
20777;DHT22;10548;47.504;8.248;2023-04-03T02:11:30;5.80;99.90
20777;DHT22;10548;47.504;8.248;2023-04-03T02:13:57;5.80;99.90
20777;DHT22;10548;47.504;8.248;2023-04-03T02:16:24;5.70;99.90
20777;DHT22;10548;47.504;8.248;2023-04-03T02:18:52;5.60;99.90
20777;DHT22;10548;47.504;8.248;2023-04-03T02:21:19;5.60;99.90
20777;DHT22;10548;47.504;8.248;2023-04-03T02:23:47;5.60;99.90
20777;DHT22;10548;47.504;8.248;2023-04-03T02:26:15;5.60;99.90
20777;DHT22;10548;47.504;8.248;2023-04-03T02:28:44;5.60;99.90
20777;DHT22;10548;47.504;8.248;2023-04-03T02:31:12;5.70;99.90
20777;DHT22;10548;47.504;8.248;2023-04-03T02:33:41;5.70;99.90
20777;DHT22;10548;47.504;8.248;2023-04-03T02:36:10;5.70;99.90
20777;DHT22;10548;47.504;8.248;2023-04-03T02:38:41;5.50;99.90
20777;DHT22;10548;47.504;8.248;2023-04-03T02:41:10;5.40;99.90
20777;DHT22;10548;47.504;8.248;2023-04-03T02:43:38;5.40;99.90
20777;DHT22;10548;47.504;8.248;2023-04-03T02:46:06;5.40;99.90
20777;DHT22;10548;47.504;8.248;2023-04-03T02:48:33;5.40;99.90
20777;DHT22;10548;47.504;8.248;2023-04-03T02:51:01;5.40;99.90
20777;DHT22;10548;47.504;8.248;2023-04-03T02:53:28;5.40;99.90
20777;DHT22;10548;47.504;8.248;2023-04-03T02:55:56;5.30;99.90
20777;DHT22;10548;47.504;8.248;2023-04-03T02:58:23;5.30;99.90
20777;DHT22;10548;47.504;8.248;2023-04-03T03:00:52;5.30;99.90
20777;DHT22;10548;47.504;8.248;2023-04-03T03:03:20;5.30;99.90
20777;DHT22;10548;47.504;8.248;2023-04-03T03:05:47;5.30;99.90
20777;DHT22;10548;47.504;8.248;2023-04-03T03:08:14;5.30;99.90
20777;DHT22;10548;47.504;8.248;2023-04-03T03:10:42;5.30;99.90
20777;DHT22;10548;47.504;8.248;2023-04-03T03:13:09;5.30;99.90
20777;DHT22;10548;47.504;8.248;2023-04-03T03:15:36;5.20;99.90
20777;DHT22;10548;47.504;8.248;2023-04-03T03:18:04;5.30;99.90
20777;DHT22;10548;47.504;8.248;2023-04-03T03:20:31;5.30;99.90
20777;DHT22;10548;47.504;8.248;2023-04-03T03:22:58;5.30;99.90
20777;DHT22;10548;47.504;8.248;2023-04-03T03:25:26;5.40;99.90
20777;DHT22;10548;47.504;8.248;2023-04-03T03:27:53;5.40;99.90
20777;DHT22;10548;47.504;8.248;2023-04-03T03:30:20;5.20;99.90
20777;DHT22;10548;47.504;8.248;2023-04-03T03:32:48;5.30;99.90
20777;DHT22;10548;47.504;8.248;2023-04-03T03:35:15;5.30;99.90
20777;DHT22;10548;47.504;8.248;2023-04-03T03:37:42;5.20;99.90
20777;DHT22;10548;47.504;8.248;2023-04-03T03:40:10;5.30;99.90
20777;DHT22;10548;47.504;8.248;2023-04-03T03:42:39;5.20;99.90
20777;DHT22;10548;47.504;8.248;2023-04-03T03:45:07;5.10;99.90
20777;DHT22;10548;47.504;8.248;2023-04-03T03:47:34;5.10;99.90
20777;DHT22;10548;47.504;8.248;2023-04-03T03:50:03;5.20;99.90
20777;DHT22;10548;47.504;8.248;2023-04-03T03:52:30;5.20;99.90
20777;DHT22;10548;47.504;8.248;2023-04-03T03:54:57;5.20;99.90
20777;DHT22;10548;47.504;8.248;2023-04-03T03:57:25;5.20;99.90
20777;DHT22;10548;47.504;8.248;2023-04-03T03:59:55;5.10;99.90
20777;DHT22;10548;47.504;8.248;2023-04-03T04:02:23;5.10;99.90
20777;DHT22;10548;47.504;8.248;2023-04-03T04:04:52;5.10;99.90
20777;DHT22;10548;47.504;8.248;2023-04-03T04:07:19;5.10;99.90
20777;DHT22;10548;47.504;8.248;2023-04-03T04:09:47;5.10;99.90
20777;DHT22;10548;47.504;8.248;2023-04-03T04:12:14;5.10;99.90
20777;DHT22;10548;47.504;8.248;2023-04-03T04:14:41;5.00;99.90
20777;DHT22;10548;47.504;8.248;2023-04-03T04:17:09;5.00;99.90
20777;DHT22;10548;47.504;8.248;2023-04-03T04:19:36;5.00;99.90
20777;DHT22;10548;47.504;8.248;2023-04-03T04:22:04;5.10;99.90
20777;DHT22;10548;47.504;8.248;2023-04-03T04:24:32;5.00;99.90
20777;DHT22;10548;47.504;8.248;2023-04-03T04:27:01;5.00;99.90
20777;DHT22;10548;47.504;8.248;2023-04-03T04:29:29;5.10;99.90
20777;DHT22;10548;47.504;8.248;2023-04-03T04:32:03;5.10;99.90
20777;DHT22;10548;47.504;8.248;2023-04-03T04:34:31;5.10;99.90
20777;DHT22;10548;47.504;8.248;2023-04-03T04:36:59;5.00;99.90
20777;DHT22;10548;47.504;8.248;2023-04-03T04:39:27;5.10;99.90
20777;DHT22;10548;47.504;8.248;2023-04-03T04:41:56;5.10;99.90
20777;DHT22;10548;47.504;8.248;2023-04-03T04:44:26;5.10;99.90
20777;DHT22;10548;47.504;8.248;2023-04-03T04:46:54;5.00;99.90
20777;DHT22;10548;47.504;8.248;2023-04-03T04:49:21;5.00;99.90
20777;DHT22;10548;47.504;8.248;2023-04-03T04:51:48;5.00;99.90
20777;DHT22;10548;47.504;8.248;2023-04-03T04:54:23;5.00;99.90
20777;DHT22;10548;47.504;8.248;2023-04-03T04:56:51;5.00;99.90
20777;DHT22;10548;47.504;8.248;2023-04-03T04:59:19;5.00;99.90
20777;DHT22;10548;47.504;8.248;2023-04-03T05:01:48;5.10;99.90
20777;DHT22;10548;47.504;8.248;2023-04-03T05:04:16;5.00;99.90
20777;DHT22;10548;47.504;8.248;2023-04-03T05:06:47;5.00;99.90
20777;DHT22;10548;47.504;8.248;2023-04-03T05:09:19;5.00;99.90
20777;DHT22;10548;47.504;8.248;2023-04-03T05:11:48;5.00;99.90
20777;DHT22;10548;47.504;8.248;2023-04-03T05:14:17;5.10;99.90
20777;DHT22;10548;47.504;8.248;2023-04-03T05:16:45;5.10;99.90
20777;DHT22;10548;47.504;8.248;2023-04-03T05:19:12;5.00;99.90
20777;DHT22;10548;47.504;8.248;2023-04-03T05:21:41;4.90;99.90
20777;DHT22;10548;47.504;8.248;2023-04-03T05:24:12;4.80;99.90
20777;DHT22;10548;47.504;8.248;2023-04-03T05:26:42;4.70;99.90
20777;DHT22;10548;47.504;8.248;2023-04-03T05:29:10;4.80;99.90
20777;DHT22;10548;47.504;8.248;2023-04-03T05:31:38;4.80;99.90
20777;DHT22;10548;47.504;8.248;2023-04-03T05:34:08;4.80;99.90
20777;DHT22;10548;47.504;8.248;2023-04-03T05:36:36;4.90;99.90
20777;DHT22;10548;47.504;8.248;2023-04-03T05:39:07;4.80;99.90
20777;DHT22;10548;47.504;8.248;2023-04-03T05:41:37;4.80;99.90
20777;DHT22;10548;47.504;8.248;2023-04-03T05:44:04;4.70;99.90
20777;DHT22;10548;47.504;8.248;2023-04-03T05:46:32;4.60;99.90
20777;DHT22;10548;47.504;8.248;2023-04-03T05:49:03;4.50;99.90
20777;DHT22;10548;47.504;8.248;2023-04-03T05:51:35;4.60;99.90
20777;DHT22;10548;47.504;8.248;2023-04-03T05:54:23;4.60;99.90
20777;DHT22;10548;47.504;8.248;2023-04-03T05:56:55;4.60;99.90
20777;DHT22;10548;47.504;8.248;2023-04-03T05:59:23;4.70;99.90
20777;DHT22;10548;47.504;8.248;2023-04-03T06:01:53;4.70;99.90
20777;DHT22;10548;47.504;8.248;2023-04-03T06:04:21;4.70;99.90
20777;DHT22;10548;47.504;8.248;2023-04-03T06:06:56;4.70;99.90
20777;DHT22;10548;47.504;8.248;2023-04-03T06:09:27;4.60;99.90
20777;DHT22;10548;47.504;8.248;2023-04-03T06:11:56;4.50;99.90
20777;DHT22;10548;47.504;8.248;2023-04-03T06:14:27;4.60;99.90
20777;DHT22;10548;47.504;8.248;2023-04-03T06:16:54;4.50;99.90
20777;DHT22;10548;47.504;8.248;2023-04-03T06:19:22;4.40;99.90
20777;DHT22;10548;47.504;8.248;2023-04-03T06:21:52;4.50;99.90
20777;DHT22;10548;47.504;8.248;2023-04-03T06:24:20;4.60;99.90
20777;DHT22;10548;47.504;8.248;2023-04-03T06:26:49;4.40;99.90
20777;DHT22;10548;47.504;8.248;2023-04-03T06:29:19;4.40;99.90
20777;DHT22;10548;47.504;8.248;2023-04-03T06:31:46;4.40;99.90
20777;DHT22;10548;47.504;8.248;2023-04-03T06:34:14;4.30;99.90
20777;DHT22;10548;47.504;8.248;2023-04-03T06:36:42;4.30;99.90
20777;DHT22;10548;47.504;8.248;2023-04-03T06:39:18;4.40;99.90
20777;DHT22;10548;47.504;8.248;2023-04-03T06:41:48;4.30;99.90
20777;DHT22;10548;47.504;8.248;2023-04-03T06:44:16;4.30;99.90
20777;DHT22;10548;47.504;8.248;2023-04-03T06:46:44;4.30;99.90
20777;DHT22;10548;47.504;8.248;2023-04-03T06:49:12;4.40;99.90
20777;DHT22;10548;47.504;8.248;2023-04-03T06:51:39;4.50;99.10
20777;DHT22;10548;47.504;8.248;2023-04-03T06:54:06;4.70;99.40
20777;DHT22;10548;47.504;8.248;2023-04-03T06:56:35;4.70;98.00
20777;DHT22;10548;47.504;8.248;2023-04-03T06:59:02;4.60;99.20
20777;DHT22;10548;47.504;8.248;2023-04-03T07:01:30;4.70;98.00
20777;DHT22;10548;47.504;8.248;2023-04-03T07:03:58;4.70;98.10
20777;DHT22;10548;47.504;8.248;2023-04-03T07:06:25;4.50;96.30
20777;DHT22;10548;47.504;8.248;2023-04-03T07:08:55;4.50;96.80
20777;DHT22;10548;47.504;8.248;2023-04-03T07:11:22;4.50;96.80
20777;DHT22;10548;47.504;8.248;2023-04-03T07:13:50;4.50;94.60
20777;DHT22;10548;47.504;8.248;2023-04-03T07:16:17;4.60;94.80
20777;DHT22;10548;47.504;8.248;2023-04-03T07:18:45;4.70;95.30
20777;DHT22;10548;47.504;8.248;2023-04-03T07:21:12;4.70;95.00
20777;DHT22;10548;47.504;8.248;2023-04-03T07:23:39;4.80;96.90
20777;DHT22;10548;47.504;8.248;2023-04-03T07:26:07;4.80;95.50
20777;DHT22;10548;47.504;8.248;2023-04-03T07:28:35;5.00;95.20
20777;DHT22;10548;47.504;8.248;2023-04-03T07:31:06;4.90;94.60
20777;DHT22;10548;47.504;8.248;2023-04-03T07:33:36;5.10;95.10
20777;DHT22;10548;47.504;8.248;2023-04-03T07:36:05;5.00;93.40
20777;DHT22;10548;47.504;8.248;2023-04-03T07:38:34;5.30;92.20
20777;DHT22;10548;47.504;8.248;2023-04-03T07:41:03;5.40;91.90
20777;DHT22;10548;47.504;8.248;2023-04-03T07:43:31;5.40;92.60
20777;DHT22;10548;47.504;8.248;2023-04-03T07:45:58;5.40;91.40
20777;DHT22;10548;47.504;8.248;2023-04-03T07:48:26;5.30;91.30
20777;DHT22;10548;47.504;8.248;2023-04-03T07:50:53;5.40;89.60
20777;DHT22;10548;47.504;8.248;2023-04-03T07:53:20;5.60;90.10
20777;DHT22;10548;47.504;8.248;2023-04-03T07:55:48;5.50;86.20
20777;DHT22;10548;47.504;8.248;2023-04-03T07:58:17;5.70;88.10
20777;DHT22;10548;47.504;8.248;2023-04-03T08:00:44;5.70;87.30
20777;DHT22;10548;47.504;8.248;2023-04-03T08:03:12;5.70;88.60
20777;DHT22;10548;47.504;8.248;2023-04-03T08:05:41;5.80;88.50
20777;DHT22;10548;47.504;8.248;2023-04-03T08:08:10;5.90;89.20
20777;DHT22;10548;47.504;8.248;2023-04-03T08:10:38;5.70;83.50
20777;DHT22;10548;47.504;8.248;2023-04-03T08:13:07;5.70;85.60
20777;DHT22;10548;47.504;8.248;2023-04-03T08:15:34;5.90;86.50
20777;DHT22;10548;47.504;8.248;2023-04-03T08:18:03;6.00;83.90
20777;DHT22;10548;47.504;8.248;2023-04-03T08:20:30;6.00;82.90
20777;DHT22;10548;47.504;8.248;2023-04-03T08:22:57;6.30;85.10
20777;DHT22;10548;47.504;8.248;2023-04-03T08:25:24;6.30;89.00
20777;DHT22;10548;47.504;8.248;2023-04-03T08:27:52;6.10;86.00
20777;DHT22;10548;47.504;8.248;2023-04-03T08:30:19;5.80;88.50
20777;DHT22;10548;47.504;8.248;2023-04-03T08:32:46;6.00;90.00
20777;DHT22;10548;47.504;8.248;2023-04-03T08:35:14;6.00;88.10
20777;DHT22;10548;47.504;8.248;2023-04-03T08:37:41;6.00;90.40
20777;DHT22;10548;47.504;8.248;2023-04-03T08:40:14;6.30;88.70
20777;DHT22;10548;47.504;8.248;2023-04-03T08:45:53;6.10;90.10
20777;DHT22;10548;47.504;8.248;2023-04-03T08:48:53;5.80;88.70
20777;DHT22;10548;47.504;8.248;2023-04-03T08:51:22;6.30;89.60
20777;DHT22;10548;47.504;8.248;2023-04-03T08:54:03;6.40;89.00
20777;DHT22;10548;47.504;8.248;2023-04-03T08:56:33;6.50;89.50
20777;DHT22;10548;47.504;8.248;2023-04-03T08:59:13;6.50;87.10
20777;DHT22;10548;47.504;8.248;2023-04-03T09:01:44;6.30;85.40
20777;DHT22;10548;47.504;8.248;2023-04-03T09:04:14;6.50;84.30
20777;DHT22;10548;47.504;8.248;2023-04-03T09:06:46;6.20;81.80
20777;DHT22;10548;47.504;8.248;2023-04-03T09:09:37;6.20;84.30
20777;DHT22;10548;47.504;8.248;2023-04-03T09:12:24;6.30;85.00
20777;DHT22;10548;47.504;8.248;2023-04-03T09:15:17;6.60;84.70
20777;DHT22;10548;47.504;8.248;2023-04-03T09:18:05;6.60;82.50
20777;DHT22;10548;47.504;8.248;2023-04-03T09:23:46;6.60;81.70
20777;DHT22;10548;47.504;8.248;2023-04-03T09:27:03;6.50;79.40
20777;DHT22;10548;47.504;8.248;2023-04-03T09:29:15;6.50;80.80
20777;DHT22;10548;47.504;8.248;2023-04-03T09:31:44;6.50;76.70
20777;DHT22;10548;47.504;8.248;2023-04-03T09:34:27;6.60;80.40
20777;DHT22;10548;47.504;8.248;2023-04-03T09:36:59;6.60;77.30
20777;DHT22;10548;47.504;8.248;2023-04-03T09:39:49;6.80;78.40
20777;DHT22;10548;47.504;8.248;2023-04-03T09:42:24;6.70;78.70
20777;DHT22;10548;47.504;8.248;2023-04-03T09:45:01;6.60;75.80
20777;DHT22;10548;47.504;8.248;2023-04-03T09:47:30;6.70;79.10
20777;DHT22;10548;47.504;8.248;2023-04-03T09:50:21;6.50;77.90
20777;DHT22;10548;47.504;8.248;2023-04-03T09:52:51;6.80;79.40
20777;DHT22;10548;47.504;8.248;2023-04-03T09:55:27;6.60;80.40
20777;DHT22;10548;47.504;8.248;2023-04-03T09:58:04;6.70;77.60
20777;DHT22;10548;47.504;8.248;2023-04-03T10:00:37;6.90;76.20
20777;DHT22;10548;47.504;8.248;2023-04-03T10:06:23;7.10;76.80
20777;DHT22;10548;47.504;8.248;2023-04-03T10:09:05;7.10;73.50
20777;DHT22;10548;47.504;8.248;2023-04-03T10:11:33;7.00;73.50
20777;DHT22;10548;47.504;8.248;2023-04-03T10:14:02;6.80;70.40
20777;DHT22;10548;47.504;8.248;2023-04-03T10:16:41;6.90;71.80
20777;DHT22;10548;47.504;8.248;2023-04-03T10:19:34;6.80;72.90
20777;DHT22;10548;47.504;8.248;2023-04-03T10:22:17;6.90;74.00
20777;DHT22;10548;47.504;8.248;2023-04-03T10:25:20;6.70;73.50
20777;DHT22;10548;47.504;8.248;2023-04-03T10:28:20;6.70;74.20
20777;DHT22;10548;47.504;8.248;2023-04-03T10:34:23;6.80;73.50
20777;DHT22;10548;47.504;8.248;2023-04-03T10:37:30;7.00;73.70
20777;DHT22;10548;47.504;8.248;2023-04-03T10:40:47;6.70;76.00
20777;DHT22;10548;47.504;8.248;2023-04-03T10:43:44;6.60;78.00
20777;DHT22;10548;47.504;8.248;2023-04-03T10:46:55;6.70;75.00
20777;DHT22;10548;47.504;8.248;2023-04-03T10:49:56;6.70;74.60
20777;DHT22;10548;47.504;8.248;2023-04-03T10:54:11;6.90;76.00
20777;DHT22;10548;47.504;8.248;2023-04-03T10:58:57;7.00;76.00
20777;DHT22;10548;47.504;8.248;2023-04-03T11:01:31;7.00;75.50
20777;DHT22;10548;47.504;8.248;2023-04-03T11:04:15;7.30;76.80
20777;DHT22;10548;47.504;8.248;2023-04-03T11:06:50;7.20;75.70
20777;DHT22;10548;47.504;8.248;2023-04-03T11:09:40;7.10;74.00
20777;DHT22;10548;47.504;8.248;2023-04-03T11:12:38;7.20;80.00
20777;DHT22;10548;47.504;8.248;2023-04-03T11:15:15;7.20;73.50
20777;DHT22;10548;47.504;8.248;2023-04-03T11:17:55;7.20;74.60
20777;DHT22;10548;47.504;8.248;2023-04-03T11:20:30;7.20;74.90
20777;DHT22;10548;47.504;8.248;2023-04-03T11:23:19;7.30;77.70
20777;DHT22;10548;47.504;8.248;2023-04-03T11:25:51;7.30;76.80
20777;DHT22;10548;47.504;8.248;2023-04-03T11:28:20;7.10;76.20
20777;DHT22;10548;47.504;8.248;2023-04-03T11:34:40;7.00;78.80
20777;DHT22;10548;47.504;8.248;2023-04-03T11:37:38;7.00;78.00
20777;DHT22;10548;47.504;8.248;2023-04-03T11:40:28;7.10;81.00
20777;DHT22;10548;47.504;8.248;2023-04-03T11:43:07;7.10;80.00
20777;DHT22;10548;47.504;8.248;2023-04-03T11:45:56;7.00;77.70
20777;DHT22;10548;47.504;8.248;2023-04-03T11:48:46;6.90;78.60
20777;DHT22;10548;47.504;8.248;2023-04-03T11:51:37;7.10;77.60
20777;DHT22;10548;47.504;8.248;2023-04-03T11:54:44;7.30;78.30
20777;DHT22;10548;47.504;8.248;2023-04-03T11:57:42;7.10;80.30
20777;DHT22;10548;47.504;8.248;2023-04-03T12:06:54;7.40;80.40
20777;DHT22;10548;47.504;8.248;2023-04-03T12:10:00;7.40;78.00
20777;DHT22;10548;47.504;8.248;2023-04-03T12:12:33;7.30;78.70
20777;DHT22;10548;47.504;8.248;2023-04-03T12:15:24;7.30;79.10
20777;DHT22;10548;47.504;8.248;2023-04-03T12:17:51;7.40;78.90
20777;DHT22;10548;47.504;8.248;2023-04-03T12:20:54;7.30;76.80
20777;DHT22;10548;47.504;8.248;2023-04-03T12:26:28;7.30;79.30
20777;DHT22;10548;47.504;8.248;2023-04-03T12:29:37;7.30;80.90
20777;DHT22;10548;47.504;8.248;2023-04-03T12:33:37;7.30;80.80
20777;DHT22;10548;47.504;8.248;2023-04-03T12:36:10;7.30;79.50
20777;DHT22;10548;47.504;8.248;2023-04-03T12:42:52;7.10;80.80
20777;DHT22;10548;47.504;8.248;2023-04-03T12:45:22;7.20;79.30
20777;DHT22;10548;47.504;8.248;2023-04-03T12:47:53;7.20;78.40
20777;DHT22;10548;47.504;8.248;2023-04-03T12:50:27;7.40;81.50
20777;DHT22;10548;47.504;8.248;2023-04-03T12:56:26;7.90;78.10
20777;DHT22;10548;47.504;8.248;2023-04-03T12:58:56;7.80;75.90
20777;DHT22;10548;47.504;8.248;2023-04-03T13:01:39;7.60;75.10
20777;DHT22;10548;47.504;8.248;2023-04-03T13:04:06;7.60;75.40
20777;DHT22;10548;47.504;8.248;2023-04-03T13:06:40;7.80;77.40
20777;DHT22;10548;47.504;8.248;2023-04-03T13:09:25;7.70;75.60
20777;DHT22;10548;47.504;8.248;2023-04-03T13:12:03;7.50;76.50
20777;DHT22;10548;47.504;8.248;2023-04-03T13:14:30;7.60;78.70
20777;DHT22;10548;47.504;8.248;2023-04-03T13:17:19;7.50;75.40
20777;DHT22;10548;47.504;8.248;2023-04-03T13:19:48;7.40;76.80
20777;DHT22;10548;47.504;8.248;2023-04-03T13:22:35;7.40;76.90
20777;DHT22;10548;47.504;8.248;2023-04-03T13:25:09;7.30;75.90
20777;DHT22;10548;47.504;8.248;2023-04-03T13:27:38;7.30;77.20
20777;DHT22;10548;47.504;8.248;2023-04-03T13:30:17;7.30;76.00
20777;DHT22;10548;47.504;8.248;2023-04-03T13:32:46;7.30;74.50
20777;DHT22;10548;47.504;8.248;2023-04-03T13:35:40;7.30;76.00
20777;DHT22;10548;47.504;8.248;2023-04-03T13:38:29;7.20;75.00
20777;DHT22;10548;47.504;8.248;2023-04-03T13:43:51;7.40;76.20
20777;DHT22;10548;47.504;8.248;2023-04-03T13:46:27;7.40;75.00
20777;DHT22;10548;47.504;8.248;2023-04-03T13:48:56;7.50;75.90
20777;DHT22;10548;47.504;8.248;2023-04-03T13:51:27;7.50;75.20
20777;DHT22;10548;47.504;8.248;2023-04-03T13:53:58;7.40;74.20
20777;DHT22;10548;47.504;8.248;2023-04-03T13:56:36;7.50;77.00
20777;DHT22;10548;47.504;8.248;2023-04-03T13:59:32;7.50;75.70
20777;DHT22;10548;47.504;8.248;2023-04-03T14:02:20;7.20;73.30
20777;DHT22;10548;47.504;8.248;2023-04-03T14:04:55;7.40;76.10
20777;DHT22;10548;47.504;8.248;2023-04-03T14:07:25;7.20;72.20
20777;DHT22;10548;47.504;8.248;2023-04-03T14:09:53;7.30;74.20
20777;DHT22;10548;47.504;8.248;2023-04-03T14:12:46;7.30;73.30
20777;DHT22;10548;47.504;8.248;2023-04-03T14:15:24;7.50;75.50
20777;DHT22;10548;47.504;8.248;2023-04-03T14:17:53;7.40;74.90
20777;DHT22;10548;47.504;8.248;2023-04-03T14:20:24;7.60;74.80
20777;DHT22;10548;47.504;8.248;2023-04-03T14:22:53;7.60;74.00
20777;DHT22;10548;47.504;8.248;2023-04-03T14:25:22;7.70;72.20
20777;DHT22;10548;47.504;8.248;2023-04-03T14:27:51;7.80;70.40
20777;DHT22;10548;47.504;8.248;2023-04-03T14:30:30;8.00;73.40
20777;DHT22;10548;47.504;8.248;2023-04-03T14:32:59;8.10;71.40
20777;DHT22;10548;47.504;8.248;2023-04-03T14:35:27;8.00;69.30
20777;DHT22;10548;47.504;8.248;2023-04-03T14:37:55;7.90;68.10
20777;DHT22;10548;47.504;8.248;2023-04-03T14:40:25;8.00;67.10
20777;DHT22;10548;47.504;8.248;2023-04-03T14:42:53;8.00;67.30
20777;DHT22;10548;47.504;8.248;2023-04-03T14:45:23;7.70;66.40
20777;DHT22;10548;47.504;8.248;2023-04-03T14:47:53;7.70;67.10
20777;DHT22;10548;47.504;8.248;2023-04-03T14:50:23;7.90;68.20
20777;DHT22;10548;47.504;8.248;2023-04-03T14:52:54;7.80;65.10
20777;DHT22;10548;47.504;8.248;2023-04-03T14:55:23;7.80;66.60
20777;DHT22;10548;47.504;8.248;2023-04-03T14:57:52;7.80;67.20
20777;DHT22;10548;47.504;8.248;2023-04-03T15:00:21;7.60;63.50
20777;DHT22;10548;47.504;8.248;2023-04-03T15:02:49;7.70;66.00
20777;DHT22;10548;47.504;8.248;2023-04-03T15:05:16;7.80;66.50
20777;DHT22;10548;47.504;8.248;2023-04-03T15:07:50;7.60;65.50
20777;DHT22;10548;47.504;8.248;2023-04-03T15:10:22;7.60;65.10
20777;DHT22;10548;47.504;8.248;2023-04-03T15:12:51;7.50;65.80
20777;DHT22;10548;47.504;8.248;2023-04-03T15:15:20;7.40;66.40
20777;DHT22;10548;47.504;8.248;2023-04-03T15:17:51;7.40;64.80
20777;DHT22;10548;47.504;8.248;2023-04-03T15:20:23;7.50;65.70
20777;DHT22;10548;47.504;8.248;2023-04-03T15:22:50;7.40;64.00
20777;DHT22;10548;47.504;8.248;2023-04-03T15:25:17;7.30;65.30
20777;DHT22;10548;47.504;8.248;2023-04-03T15:27:45;7.30;63.90
20777;DHT22;10548;47.504;8.248;2023-04-03T15:30:17;7.40;65.00
20777;DHT22;10548;47.504;8.248;2023-04-03T15:32:45;7.50;65.80
20777;DHT22;10548;47.504;8.248;2023-04-03T15:35:13;7.40;65.60
20777;DHT22;10548;47.504;8.248;2023-04-03T15:37:40;7.40;67.80
20777;DHT22;10548;47.504;8.248;2023-04-03T15:40:08;7.40;66.00
20777;DHT22;10548;47.504;8.248;2023-04-03T15:42:36;7.30;66.90
20777;DHT22;10548;47.504;8.248;2023-04-03T15:45:03;7.50;67.10
20777;DHT22;10548;47.504;8.248;2023-04-03T15:47:31;7.50;67.10
20777;DHT22;10548;47.504;8.248;2023-04-03T15:49:58;7.30;64.20
20777;DHT22;10548;47.504;8.248;2023-04-03T15:52:25;7.20;63.00
20777;DHT22;10548;47.504;8.248;2023-04-03T15:54:52;7.30;66.20
20777;DHT22;10548;47.504;8.248;2023-04-03T15:57:19;7.30;66.30
20777;DHT22;10548;47.504;8.248;2023-04-03T15:59:47;7.30;64.20
20777;DHT22;10548;47.504;8.248;2023-04-03T16:02:14;7.40;66.70
20777;DHT22;10548;47.504;8.248;2023-04-03T16:04:41;7.40;64.40
20777;DHT22;10548;47.504;8.248;2023-04-03T16:07:09;7.30;61.80
20777;DHT22;10548;47.504;8.248;2023-04-03T16:09:36;7.20;61.80
20777;DHT22;10548;47.504;8.248;2023-04-03T16:12:03;7.20;61.20
20777;DHT22;10548;47.504;8.248;2023-04-03T16:14:30;7.30;65.40
20777;DHT22;10548;47.504;8.248;2023-04-03T16:16:58;7.30;64.00
20777;DHT22;10548;47.504;8.248;2023-04-03T16:19:26;7.10;61.70
20777;DHT22;10548;47.504;8.248;2023-04-03T16:21:54;7.10;61.10
20777;DHT22;10548;47.504;8.248;2023-04-03T16:24:22;7.20;66.00
20777;DHT22;10548;47.504;8.248;2023-04-03T16:26:49;7.20;64.10
20777;DHT22;10548;47.504;8.248;2023-04-03T16:29:16;7.20;63.70
20777;DHT22;10548;47.504;8.248;2023-04-03T16:31:43;7.10;65.40
20777;DHT22;10548;47.504;8.248;2023-04-03T16:34:11;7.00;61.70
20777;DHT22;10548;47.504;8.248;2023-04-03T16:36:38;7.00;65.10
20777;DHT22;10548;47.504;8.248;2023-04-03T16:39:05;7.00;64.50
20777;DHT22;10548;47.504;8.248;2023-04-03T16:41:33;7.00;62.60
20777;DHT22;10548;47.504;8.248;2023-04-03T16:44:00;6.90;62.60
20777;DHT22;10548;47.504;8.248;2023-04-03T16:46:27;7.00;63.90
20777;DHT22;10548;47.504;8.248;2023-04-03T16:48:54;6.90;62.70
20777;DHT22;10548;47.504;8.248;2023-04-03T16:51:21;6.80;62.60
20777;DHT22;10548;47.504;8.248;2023-04-03T16:53:49;6.80;62.00
20777;DHT22;10548;47.504;8.248;2023-04-03T16:56:16;6.80;62.60
20777;DHT22;10548;47.504;8.248;2023-04-03T16:58:44;6.80;63.50